OITZOICS

Guest
Details From OITZ - Zanjan
To OICS - Sanandaj
Flight Number -
Tags Routegen Generated
Created
Modified
Stats Distance 122 nm / 225 km
Max Altitude 400 ft / 122 m
Waypoints 11
Social Downloads 0
Likes 0
Share

Download

Looking for another format? Having issues loading an existing format? Contact us
Advertisement - Login to hide

Notes

Departing runway 12 OITZ. Arriving runway 1 OICS.

Route

OITZ +36.72_+048.45 +36.67_+048.49 +36.62_+048.50 +36.56_+048.49 +36.51_+048.46 +36.47_+048.41 +36.02_+047.86 +35.37_+047.09 +35.33_+047.04 OICS

ID Type Via Altitude (ft/m) Position (lat/lon) Dist (leg/tot) Name
O OITZ APT - 0 / 0 36.76561 / 48.37292 - / 0 nm
+36.72_+048.45 LATLON - 400 / 122 36.72240 / 48.44537 4 / 4 nm
+36.67_+048.49 LATLON - 400 / 122 36.67404 / 48.48506 3 / 7 nm
+36.62_+048.50 LATLON - 400 / 122 36.61771 / 48.50173 3 / 11 nm
+36.56_+048.49 LATLON - 400 / 122 36.56021 / 48.49340 3 / 14 nm
+36.51_+048.46 LATLON - 400 / 122 36.50846 / 48.46111 3 / 18 nm
+36.47_+048.41 LATLON - 400 / 122 36.46870 / 48.40877 3 / 21 nm
+36.02_+047.86 LATLON - 400 / 122 36.02339 / 47.86491 37 / 59 nm
+35.37_+047.09 LATLON - 400 / 122 35.37147 / 47.08520 54 / 113 nm
+35.33_+047.04 LATLON - 400 / 122 35.32593 / 47.04136 3 / 117 nm
O OICS APT - 0 / 0 35.25716 / 47.01378 4 / 121 nm

Altitude Profile

Advertisement - Login to hide

OITZ

Details ICAO OITZ (JWN)
Name ZANJAN
Region Iran
Timezone Asia/Tehran (UTC+3.5)
Stats Elevation 5,382 ft / 1,640 m (AMSL)
Location 36.773700° 48.359400°
Runways 1
Magnetic Variation 5.369° E

METAR

OITZ 271200Z 31008KT 9999 FEW030TCU FEW035TCU 26/05 Q1016 A3003

Decode

TAF

Not found

Departure Runways

ID Width Length Bearing (true/mag) Surface Threshold Overrun Markings Lighting
12 148 ft / 45 m 9,835 ft / 2,998 m 126.62° / 121.25° ASPHALT 0 ft / 0 m 190 ft / 58 m APP
30 148 ft / 45 m 9,835 ft / 2,998 m 306.64° / 301.27° ASPHALT 0 ft / 0 m 190 ft / 58 m APP

OICS

Details ICAO OICS (SDG)
Name SANANDAJ
Region Iran
Timezone Asia/Tehran (UTC+3.5)
Stats Elevation 4,522 ft / 1,378 m (AMSL)
Location 35.245900° 47.009200°
Runways 1
Magnetic Variation 5.058° E

METAR

OICS 271100Z 01004KT 9999 SCT040 32/M01 Q1015 A2999

Decode

TAF

Not found

Destination Runways

ID Width Length Bearing (true/mag) Surface Threshold Overrun Markings Lighting
01 148 ft / 45 m 8,679 ft / 2,645 m 18.12° / 13.06° ASPHALT 0 ft / 0 m 0 ft / 0 m APP EDGE THRESHOLD
19 148 ft / 45 m 8,679 ft / 2,645 m 198.12° / 193.06° ASPHALT 0 ft / 0 m 345 ft / 105 m APP EDGE THRESHOLD SALS